Time;durP1;ratioP1;P1;durP2;ratioP2;P2;SDS_P1;SDS_P2;PMS_P1;PMS_P2;Temp;Humidity;BMP_temperature;BMP_pressure;BME280_temperature;BME280_humidity;BME280_pressure;Samples;Min_cycle;Max_cycle;Signal;HPM_P1;HPM_P2
2022/12/29 00:01:35;;;;;;;0.73;0.73;;;;;;;;;;5012800;28;20444;-77
2022/12/29 00:04:01;;;;;;;0.80;0.80;;;;;;;;;;5009499;28;20658;-76
2022/12/29 00:06:27;;;;;;;0.90;0.90;;;;;;;;;;5022558;28;20466;-78
2022/12/29 00:08:53;;;;;;;1.00;1.00;;;;;;;;;;5012885;28;20508;-77
2022/12/29 00:11:23;;;;;;;1.30;1.30;;;;;;;;;;5029854;28;20561;-77
2022/12/29 00:16:35;;;;;;;1.60;1.50;;;;;;;;;;5035476;28;20409;-79
2022/12/29 00:19:01;;;;;;;0.87;0.87;;;;;;;;;;5033147;28;20527;-77
2022/12/29 00:35:10;;;;;;;1.20;1.20;;;;;;;;;;5032139;28;20420;-77
2022/12/29 00:46:00;;;;;;;1.40;1.40;;;;;;;;;;5022101;28;20564;-77
2022/12/29 00:51:11;;;;;;;1.40;1.40;;;;;;;;;;5028915;28;20491;-78
2022/12/29 00:53:37;;;;;;;0.87;0.87;;;;;;;;;;5033696;28;20397;-77
2022/12/29 00:56:03;;;;;;;1.40;1.40;;;;;;;;;;5015025;28;20435;-77
2022/12/29 00:58:29;;;;;;;0.80;0.80;;;;;;;;;;5023424;28;20599;-76
2022/12/29 01:01:05;;;;;;;1.00;1.00;;;;;;;;;;5028927;28;20443;-76
2022/12/29 01:03:32;;;;;;;1.00;1.00;;;;;;;;;;5028802;28;20472;-76
2022/12/29 01:06:01;;;;;;;0.70;0.70;;;;;;;;;;5034772;28;20983;-76
2022/12/29 01:08:30;;;;;;;0.93;0.83;;;;;;;;;;5024147;28;20492;-77
2022/12/29 01:11:07;;;;;;;0.90;0.90;;;;;;;;;;5024183;28;20603;-76
2022/12/29 01:13:33;;;;;;;0.70;0.70;;;;;;;;;;5030098;28;20441;-77
2022/12/29 01:15:59;;;;;;;1.03;0.90;;;;;;;;;;5024365;28;20539;-75
2022/12/29 01:18:26;;;;;;;1.00;0.90;;;;;;;;;;5033504;28;20409;-76
2022/12/29 01:20:58;;;;;;;0.70;0.70;;;;;;;;;;5031408;28;20427;-77
2022/12/29 01:23:24;;;;;;;0.70;0.70;;;;;;;;;;5031982;28;20444;-76
2022/12/29 01:25:50;;;;;;;0.73;0.73;;;;;;;;;;5029983;28;20425;-76
2022/12/29 01:28:16;;;;;;;0.90;0.90;;;;;;;;;;5037913;28;20740;-77
2022/12/29 01:30:42;;;;;;;1.00;0.80;;;;;;;;;;5024513;28;20470;-77
2022/12/29 01:33:08;;;;;;;0.80;0.80;;;;;;;;;;5030140;28;20425;-76
2022/12/29 01:35:35;;;;;;;0.93;0.93;;;;;;;;;;5030194;28;20410;-76
2022/12/29 01:38:01;;;;;;;0.70;0.70;;;;;;;;;;5035990;28;20415;-75
2022/12/29 01:40:28;;;;;;;0.70;0.70;;;;;;;;;;5040836;28;20464;-76
2022/12/29 01:42:54;;;;;;;0.50;0.50;;;;;;;;;;5038562;28;20415;-76
2022/12/29 01:45:20;;;;;;;0.63;0.63;;;;;;;;;;5053870;28;20428;-76
2022/12/29 01:47:52;;;;;;;0.50;0.50;;;;;;;;;;5050866;28;20613;-78
2022/12/29 01:50:28;;;;;;;2.23;0.40;;;;;;;;;;5035853;28;20510;-75
2022/12/29 01:53:05;;;;;;;0.40;0.40;;;;;;;;;;5031864;28;20426;-77
2022/12/29 01:55:33;;;;;;;0.50;0.50;;;;;;;;;;5023210;28;20460;-78
2022/12/29 01:58:01;;;;;;;0.30;0.30;;;;;;;;;;5044394;28;20429;-75
2022/12/29 02:00:27;;;;;;;0.40;0.40;;;;;;;;;;5029472;28;20426;-76
2022/12/29 02:02:54;;;;;;;0.40;0.40;;;;;;;;;;5035112;28;20405;-76
2022/12/29 02:05:20;;;;;;;0.30;0.30;;;;;;;;;;5039222;28;20448;-77
2022/12/29 02:07:47;;;;;;;0.47;0.47;;;;;;;;;;5040182;28;20801;-76
2022/12/29 02:10:13;;;;;;;1.43;0.50;;;;;;;;;;5029005;28;20477;-75
2022/12/29 02:12:39;;;;;;;0.77;0.77;;;;;;;;;;5038967;28;20417;-77
2022/12/29 02:15:05;;;;;;;0.43;0.43;;;;;;;;;;5030566;28;20431;-76
2022/12/29 02:17:58;;;;;;;0.30;0.30;;;;;;;;;;5044882;28;20608;-76
2022/12/29 02:20:42;;;;;;;0.30;0.30;;;;;;;;;;5020659;28;20768;-77
2022/12/29 02:23:27;;;;;;;0.30;0.30;;;;;;;;;;5035157;28;20446;-77
2022/12/29 02:25:53;;;;;;;0.40;0.40;;;;;;;;;;5036905;28;20528;-76
2022/12/29 02:28:38;;;;;;;0.50;0.50;;;;;;;;;;5032668;28;20510;-76
2022/12/29 02:31:24;;;;;;;0.80;0.50;;;;;;;;;;5040599;28;20535;-76
2022/12/29 02:34:02;;;;;;;0.50;0.50;;;;;;;;;;5037077;28;20568;-77
2022/12/29 02:36:34;;;;;;;0.60;0.60;;;;;;;;;;5036116;28;20438;-77
2022/12/29 02:39:06;;;;;;;0.73;0.73;;;;;;;;;;5027177;28;20509;-76
2022/12/29 02:41:35;;;;;;;0.60;0.60;;;;;;;;;;5035206;28;20434;-76
2022/12/29 02:44:20;;;;;;;0.30;0.30;;;;;;;;;;5039556;28;21079;-76
2022/12/29 02:46:50;;;;;;;2.70;1.13;;;;;;;;;;5030558;28;20427;-76
2022/12/29 02:49:19;;;;;;;0.50;0.50;;;;;;;;;;5024708;28;21249;-76
2022/12/29 02:51:45;;;;;;;0.40;0.40;;;;;;;;;;5035557;28;20454;-77
2022/12/29 02:56:56;;;;;;;0.70;0.70;;;;;;;;;;5036628;28;20437;-77
2022/12/29 02:59:22;;;;;;;0.50;0.50;;;;;;;;;;5032019;28;20427;-77
2022/12/29 03:02:20;;;;;;;0.60;0.60;;;;;;;;;;5028184;28;20773;-76
2022/12/29 03:04:46;;;;;;;0.40;0.40;;;;;;;;;;5023266;28;20815;-76
2022/12/29 03:07:28;;;;;;;1.50;0.40;;;;;;;;;;5034973;28;20951;-76
2022/12/29 03:10:17;;;;;;;1.13;0.80;;;;;;;;;;5030986;28;20438;-75
2022/12/29 03:16:00;;;;;;;0.67;0.67;;;;;;;;;;5028040;28;20496;-75
2022/12/29 03:18:46;;;;;;;0.60;0.60;;;;;;;;;;5011130;28;20436;-76
2022/12/29 03:24:21;;;;;;;2.07;0.73;;;;;;;;;;5006940;28;20791;-75
2022/12/29 03:26:48;;;;;;;0.70;0.70;;;;;;;;;;5017904;28;20407;-75
2022/12/29 03:29:15;;;;;;;0.40;0.40;;;;;;;;;;5018010;28;20438;-75
2022/12/29 03:31:42;;;;;;;0.53;0.53;;;;;;;;;;5026676;28;20832;-76
2022/12/29 03:34:10;;;;;;;0.67;0.67;;;;;;;;;;5020860;28;20455;-75
2022/12/29 03:36:39;;;;;;;0.60;0.60;;;;;;;;;;5037006;28;20422;-76
2022/12/29 03:39:12;;;;;;;0.40;0.40;;;;;;;;;;5025804;28;20434;-76
2022/12/29 03:41:40;;;;;;;0.60;0.60;;;;;;;;;;5036361;28;20483;-76
2022/12/29 03:44:07;;;;;;;1.13;0.50;;;;;;;;;;5039398;28;20520;-77
2022/12/29 03:46:33;;;;;;;0.87;0.87;;;;;;;;;;5025895;28;20407;-76
2022/12/29 03:48:59;;;;;;;0.60;0.60;;;;;;;;;;5030162;28;20553;-76
2022/12/29 03:51:24;;;;;;;0.60;0.60;;;;;;;;;;5032632;28;20461;-77
2022/12/29 03:53:50;;;;;;;0.60;0.60;;;;;;;;;;5027485;28;20517;-75
2022/12/29 03:56:16;;;;;;;0.90;0.90;;;;;;;;;;5037167;28;20422;-75
2022/12/29 03:58:43;;;;;;;0.40;0.40;;;;;;;;;;5038966;28;21090;-76
2022/12/29 04:01:09;;;;;;;0.70;0.70;;;;;;;;;;5029945;28;20431;-76
2022/12/29 04:03:35;;;;;;;0.67;0.67;;;;;;;;;;5031567;28;20500;-77
2022/12/29 04:06:01;;;;;;;0.70;0.70;;;;;;;;;;5033651;28;20445;-76
2022/12/29 04:08:27;;;;;;;0.50;0.50;;;;;;;;;;5037810;28;20437;-76
2022/12/29 04:10:53;;;;;;;0.50;0.50;;;;;;;;;;5030604;28;20500;-77
2022/12/29 04:13:19;;;;;;;0.40;0.40;;;;;;;;;;5016586;28;21095;-76
2022/12/29 04:15:45;;;;;;;0.60;0.60;;;;;;;;;;5041196;28;20436;-76
2022/12/29 04:18:11;;;;;;;0.43;0.43;;;;;;;;;;5013584;28;20463;-76
2022/12/29 04:23:22;;;;;;;0.50;0.50;;;;;;;;;;5034117;28;20824;-76
2022/12/29 04:25:48;;;;;;;0.60;0.60;;;;;;;;;;5042691;28;20433;-76
2022/12/29 04:28:15;;;;;;;2.00;0.40;;;;;;;;;;5040323;28;20446;-75
2022/12/29 04:30:41;;;;;;;0.50;0.50;;;;;;;;;;5043100;28;20967;-76
2022/12/29 04:33:07;;;;;;;0.77;0.57;;;;;;;;;;5022301;28;20446;-76
2022/12/29 04:35:33;;;;;;;0.70;0.70;;;;;;;;;;5039549;28;20924;-76
2022/12/29 04:37:59;;;;;;;0.40;0.40;;;;;;;;;;5033412;28;20635;-75
2022/12/29 04:40:25;;;;;;;0.37;0.37;;;;;;;;;;5044273;28;20812;-75
2022/12/29 04:42:51;;;;;;;1.37;0.57;;;;;;;;;;5040700;28;20520;-77
2022/12/29 04:45:17;;;;;;;2.90;0.60;;;;;;;;;;5041292;28;20430;-75
2022/12/29 04:47:43;;;;;;;0.40;0.40;;;;;;;;;;5038121;28;20527;-76
2022/12/29 04:50:09;;;;;;;0.40;0.40;;;;;;;;;;5042943;28;20469;-76
2022/12/29 04:52:36;;;;;;;0.50;0.50;;;;;;;;;;5040691;28;20947;-76
2022/12/29 04:55:02;;;;;;;0.50;0.50;;;;;;;;;;5043443;28;20448;-75
2022/12/29 04:57:28;;;;;;;0.30;0.30;;;;;;;;;;5039515;28;20529;-76
2022/12/29 04:59:54;;;;;;;0.40;0.40;;;;;;;;;;5039126;28;20426;-76
2022/12/29 05:02:20;;;;;;;0.93;0.40;;;;;;;;;;5018325;28;20435;-77
2022/12/29 05:04:46;;;;;;;0.43;0.43;;;;;;;;;;5040734;28;20467;-75
2022/12/29 05:07:12;;;;;;;0.43;0.43;;;;;;;;;;5039008;28;20955;-77
2022/12/29 05:09:38;;;;;;;0.40;0.40;;;;;;;;;;5024761;28;20925;-76
2022/12/29 05:12:04;;;;;;;0.40;0.40;;;;;;;;;;5038713;28;20508;-75
2022/12/29 05:14:30;;;;;;;0.40;0.40;;;;;;;;;;5036811;28;20431;-75
2022/12/29 05:16:56;;;;;;;0.70;0.70;;;;;;;;;;5039085;28;21021;-75
2022/12/29 05:19:22;;;;;;;2.70;0.50;;;;;;;;;;5042421;28;20517;-76
2022/12/29 05:21:48;;;;;;;0.50;0.50;;;;;;;;;;5036375;28;20564;-76
2022/12/29 05:24:15;;;;;;;0.80;0.70;;;;;;;;;;5021162;28;20445;-75
2022/12/29 05:26:41;;;;;;;1.30;1.20;;;;;;;;;;5039470;28;20441;-76
2022/12/29 05:29:07;;;;;;;1.40;0.50;;;;;;;;;;5042463;28;20445;-75
2022/12/29 05:31:35;;;;;;;0.77;0.70;;;;;;;;;;5035616;28;20457;-76
2022/12/29 05:34:04;;;;;;;0.40;0.40;;;;;;;;;;5036310;28;21271;-75
2022/12/29 05:36:30;;;;;;;0.50;0.50;;;;;;;;;;5035288;28;20626;-75
2022/12/29 05:38:56;;;;;;;2.00;0.70;;;;;;;;;;5028585;28;20999;-75
2022/12/29 05:41:22;;;;;;;1.70;0.40;;;;;;;;;;5035248;28;20421;-75
2022/12/29 05:43:48;;;;;;;0.70;0.40;;;;;;;;;;5032733;28;20431;-76
2022/12/29 05:46:14;;;;;;;0.70;0.70;;;;;;;;;;5030118;28;20714;-75
2022/12/29 05:48:40;;;;;;;0.93;0.67;;;;;;;;;;5033821;28;20711;-75
2022/12/29 05:51:06;;;;;;;0.40;0.40;;;;;;;;;;5044139;28;20453;-76
2022/12/29 05:53:32;;;;;;;1.27;0.40;;;;;;;;;;5040677;28;20430;-76
2022/12/29 05:55:58;;;;;;;0.60;0.60;;;;;;;;;;5041061;28;20832;-74
2022/12/29 05:58:24;;;;;;;1.90;0.77;;;;;;;;;;5024579;28;20406;-75
2022/12/29 06:00:50;;;;;;;0.87;0.80;;;;;;;;;;5039694;28;20437;-75
2022/12/29 06:03:16;;;;;;;0.70;0.70;;;;;;;;;;5036242;28;20662;-76
2022/12/29 06:05:42;;;;;;;2.00;0.80;;;;;;;;;;5039391;28;20452;-75
2022/12/29 06:08:08;;;;;;;1.70;0.60;;;;;;;;;;5036569;28;20937;-76
2022/12/29 06:10:34;;;;;;;1.60;0.60;;;;;;;;;;5028123;28;20476;-76
2022/12/29 06:13:00;;;;;;;0.93;0.70;;;;;;;;;;5032474;28;20427;-76
2022/12/29 06:15:26;;;;;;;0.33;0.33;;;;;;;;;;5034326;28;20434;-76
2022/12/29 06:17:52;;;;;;;0.80;0.77;;;;;;;;;;5043741;28;20475;-76
2022/12/29 06:20:18;;;;;;;1.87;1.77;;;;;;;;;;5025332;28;20438;-77
2022/12/29 06:22:45;;;;;;;0.87;0.70;;;;;;;;;;5044077;28;20441;-74
2022/12/29 06:25:11;;;;;;;2.30;0.60;;;;;;;;;;5041486;28;20590;-76
2022/12/29 06:27:37;;;;;;;0.30;0.30;;;;;;;;;;5045112;28;20468;-76
2022/12/29 06:30:03;;;;;;;0.57;0.57;;;;;;;;;;5033070;28;20836;-75
2022/12/29 06:32:29;;;;;;;0.80;0.80;;;;;;;;;;5038093;28;20507;-77
2022/12/29 06:34:55;;;;;;;0.50;0.50;;;;;;;;;;5035387;28;20476;-76
2022/12/29 06:37:21;;;;;;;0.40;0.40;;;;;;;;;;5043606;28;20437;-75
2022/12/29 06:39:47;;;;;;;0.67;0.67;;;;;;;;;;5026070;28;20439;-75
2022/12/29 06:42:13;;;;;;;0.73;0.70;;;;;;;;;;5035061;28;20418;-75
2022/12/29 06:44:39;;;;;;;4.37;1.10;;;;;;;;;;5028048;28;20990;-75
2022/12/29 06:47:05;;;;;;;0.50;0.50;;;;;;;;;;5040616;28;20513;-76
2022/12/29 06:49:31;;;;;;;0.50;0.50;;;;;;;;;;5033682;28;20438;-75
2022/12/29 06:51:59;;;;;;;1.37;0.57;;;;;;;;;;5035544;28;20816;-76
2022/12/29 06:54:25;;;;;;;0.83;0.60;;;;;;;;;;5036760;28;20431;-75
2022/12/29 06:56:51;;;;;;;0.43;0.43;;;;;;;;;;5043491;28;20923;-76
2022/12/29 06:59:17;;;;;;;0.97;0.97;;;;;;;;;;5041010;28;20475;-77
2022/12/29 07:01:43;;;;;;;0.50;0.50;;;;;;;;;;5042391;28;20876;-75
2022/12/29 07:04:09;;;;;;;1.13;1.13;;;;;;;;;;5039030;28;20450;-74
2022/12/29 07:06:35;;;;;;;1.17;0.60;;;;;;;;;;5041956;28;20406;-75
2022/12/29 07:09:01;;;;;;;1.33;0.50;;;;;;;;;;5032005;28;20706;-76
2022/12/29 07:11:27;;;;;;;0.50;0.50;;;;;;;;;;5034144;28;20470;-74
2022/12/29 07:13:53;;;;;;;0.53;0.53;;;;;;;;;;5032627;28;20461;-76
2022/12/29 07:16:19;;;;;;;5.30;0.80;;;;;;;;;;5034918;28;20782;-75
2022/12/29 07:18:45;;;;;;;1.27;0.60;;;;;;;;;;5038765;28;20441;-76
2022/12/29 07:21:11;;;;;;;0.67;0.53;;;;;;;;;;5040084;28;20754;-76
2022/12/29 07:23:37;;;;;;;0.93;0.53;;;;;;;;;;5025570;28;20435;-76
2022/12/29 07:26:05;;;;;;;0.83;0.70;;;;;;;;;;5023879;28;20442;-75
2022/12/29 07:28:32;;;;;;;0.70;0.70;;;;;;;;;;5033811;28;20805;-76
2022/12/29 07:30:58;;;;;;;2.10;1.17;;;;;;;;;;5024065;28;20478;-78
2022/12/29 07:33:24;;;;;;;0.80;0.80;;;;;;;;;;5033876;28;20491;-75
2022/12/29 07:35:50;;;;;;;1.17;0.67;;;;;;;;;;5010831;28;20447;-75
2022/12/29 07:38:16;;;;;;;2.03;0.63;;;;;;;;;;5008507;28;20600;-76
2022/12/29 07:40:42;;;;;;;0.97;0.60;;;;;;;;;;5009409;28;20415;-76
2022/12/29 07:43:08;;;;;;;0.90;0.80;;;;;;;;;;5024419;28;20426;-76
2022/12/29 07:45:34;;;;;;;0.40;0.40;;;;;;;;;;5030968;28;20419;-75
2022/12/29 07:48:07;;;;;;;0.60;0.60;;;;;;;;;;5031998;28;20768;-77
2022/12/29 07:50:33;;;;;;;1.73;0.93;;;;;;;;;;5010812;28;20826;-74
2022/12/29 07:52:59;;;;;;;8.03;1.17;;;;;;;;;;5024342;28;20597;-76
2022/12/29 07:55:25;;;;;;;1.37;0.77;;;;;;;;;;5015909;28;21337;-74
2022/12/29 07:57:53;;;;;;;0.63;0.60;;;;;;;;;;5018427;28;20454;-77
2022/12/29 08:00:20;;;;;;;0.57;0.57;;;;;;;;;;5024368;28;20441;-74
2022/12/29 08:02:46;;;;;;;1.70;0.60;;;;;;;;;;5026186;28;20446;-76
2022/12/29 08:05:12;;;;;;;1.63;1.30;;;;;;;;;;5017012;28;20446;-77
2022/12/29 08:07:38;;;;;;;1.63;1.17;;;;;;;;;;5028512;28;20470;-78
2022/12/29 08:10:05;;;;;;;2.30;1.27;;;;;;;;;;5018554;28;20446;-76
2022/12/29 08:12:31;;;;;;;2.73;1.27;;;;;;;;;;5020748;28;20424;-76
2022/12/29 08:14:57;;;;;;;0.83;0.67;;;;;;;;;;5018752;28;20505;-76
2022/12/29 08:17:23;;;;;;;1.50;0.87;;;;;;;;;;5016701;28;20975;-77
2022/12/29 08:19:49;;;;;;;0.80;0.80;;;;;;;;;;5021466;28;20454;-73
2022/12/29 08:22:15;;;;;;;0.77;0.77;;;;;;;;;;5025096;28;21133;-74
2022/12/29 08:24:41;;;;;;;0.50;0.50;;;;;;;;;;5026613;28;20572;-73
2022/12/29 08:27:07;;;;;;;11.93;7.77;;;;;;;;;;5020849;28;20523;-77
2022/12/29 08:29:33;;;;;;;2.93;0.80;;;;;;;;;;5019995;28;20448;-76
2022/12/29 08:32:00;;;;;;;4.53;0.87;;;;;;;;;;5029897;28;20462;-74
2022/12/29 08:34:26;;;;;;;3.70;0.97;;;;;;;;;;5022382;28;20436;-75
2022/12/29 08:36:52;;;;;;;3.20;0.70;;;;;;;;;;5029845;28;20925;-75
2022/12/29 08:39:18;;;;;;;2.13;0.67;;;;;;;;;;5022534;28;20469;-74
2022/12/29 08:41:44;;;;;;;2.10;0.70;;;;;;;;;;5020807;28;20957;-74
2022/12/29 08:44:10;;;;;;;0.90;0.90;;;;;;;;;;5019290;28;20454;-74
2022/12/29 08:46:36;;;;;;;4.97;0.93;;;;;;;;;;5012962;28;20427;-75
2022/12/29 08:49:02;;;;;;;3.50;0.57;;;;;;;;;;5018845;28;20501;-75
2022/12/29 08:51:28;;;;;;;3.90;1.37;;;;;;;;;;5019872;28;20538;-76
2022/12/29 08:53:54;;;;;;;0.90;0.90;;;;;;;;;;5012449;28;20453;-76
2022/12/29 08:56:20;;;;;;;1.07;1.07;;;;;;;;;;5012062;28;20429;-74
2022/12/29 08:58:46;;;;;;;1.53;1.40;;;;;;;;;;5012107;28;20776;-75
2022/12/29 09:01:12;;;;;;;1.73;1.07;;;;;;;;;;5014501;28;20529;-74
2022/12/29 09:03:38;;;;;;;2.00;0.90;;;;;;;;;;5012880;28;20966;-74
2022/12/29 09:06:04;;;;;;;3.80;1.30;;;;;;;;;;5009096;28;20439;-75
2022/12/29 09:08:30;;;;;;;2.27;1.00;;;;;;;;;;5012340;28;20439;-74
2022/12/29 09:10:56;;;;;;;1.87;0.83;;;;;;;;;;5012671;28;20502;-74
2022/12/29 09:13:22;;;;;;;1.17;0.70;;;;;;;;;;5011312;28;20454;-75
2022/12/29 09:15:48;;;;;;;1.57;0.70;;;;;;;;;;5014863;28;20441;-74
2022/12/29 09:18:14;;;;;;;1.77;0.87;;;;;;;;;;5018419;28;20864;-77
2022/12/29 09:20:40;;;;;;;1.10;0.40;;;;;;;;;;5018019;28;20449;-75
2022/12/29 09:23:06;;;;;;;2.07;0.60;;;;;;;;;;5012931;28;20482;-76
2022/12/29 09:25:32;;;;;;;2.87;1.03;;;;;;;;;;5016163;28;20470;-74
2022/12/29 09:27:58;;;;;;;0.80;0.80;;;;;;;;;;5024140;28;20473;-75
2022/12/29 09:30:24;;;;;;;2.67;1.67;;;;;;;;;;5013267;28;20938;-76
2022/12/29 09:32:50;;;;;;;1.13;0.80;;;;;;;;;;5019294;28;20450;-76
2022/12/29 09:35:17;;;;;;;2.40;2.20;;;;;;;;;;5018611;28;20440;-75
2022/12/29 09:37:43;;;;;;;1.70;0.70;;;;;;;;;;5010883;28;20952;-75
2022/12/29 09:40:24;;;;;;;2.33;0.97;;;;;;;;;;5022084;28;20436;-75
2022/12/29 09:42:50;;;;;;;1.33;1.10;;;;;;;;;;5031306;28;20818;-75
2022/12/29 09:45:28;;;;;;;2.30;0.87;;;;;;;;;;5003544;28;20505;-76
2022/12/29 09:47:54;;;;;;;1.67;1.30;;;;;;;;;;5014029;28;20435;-76
2022/12/29 09:50:26;;;;;;;3.67;0.80;;;;;;;;;;5011680;28;20466;-75
2022/12/29 09:52:59;;;;;;;0.73;0.60;;;;;;;;;;5018241;28;20446;-75
2022/12/29 09:55:35;;;;;;;3.10;1.17;;;;;;;;;;5018826;28;20438;-77
2022/12/29 09:58:05;;;;;;;2.60;0.80;;;;;;;;;;5029560;28;20591;-76
2022/12/29 10:00:37;;;;;;;0.87;0.87;;;;;;;;;;5023939;28;21047;-75
2022/12/29 10:03:10;;;;;;;0.73;0.60;;;;;;;;;;5027074;28;20426;-76
2022/12/29 10:05:44;;;;;;;5.00;0.97;;;;;;;;;;5015667;28;20437;-77
2022/12/29 10:08:16;;;;;;;0.80;0.80;;;;;;;;;;5015692;28;20719;-76
2022/12/29 10:11:05;;;;;;;2.00;1.20;;;;;;;;;;5012628;28;21035;-77
2022/12/29 10:13:58;;;;;;;2.00;0.77;;;;;;;;;;5015267;28;20440;-75
2022/12/29 10:16:31;;;;;;;1.87;0.90;;;;;;;;;;5021284;28;20431;-77
2022/12/29 10:19:00;;;;;;;2.97;2.60;;;;;;;;;;5023299;28;20941;-78
2022/12/29 10:21:40;;;;;;;1.43;1.20;;;;;;;;;;5019630;28;20955;-76
2022/12/29 10:24:08;;;;;;;1.10;0.80;;;;;;;;;;5009957;28;20431;-76
2022/12/29 10:26:38;;;;;;;1.23;1.20;;;;;;;;;;5015721;28;20518;-75
2022/12/29 10:29:05;;;;;;;3.13;0.80;;;;;;;;;;5011551;28;20434;-74
2022/12/29 10:31:38;;;;;;;2.30;0.80;;;;;;;;;;5024810;28;20783;-77
2022/12/29 10:34:14;;;;;;;1.40;0.87;;;;;;;;;;5041012;28;20433;-75
2022/12/29 10:36:48;;;;;;;1.07;0.50;;;;;;;;;;5009234;28;20542;-75
2022/12/29 10:39:26;;;;;;;4.00;0.53;;;;;;;;;;5026187;28;20443;-75
2022/12/29 10:42:10;;;;;;;1.33;0.73;;;;;;;;;;5024217;28;20411;-75
2022/12/29 10:44:36;;;;;;;0.80;0.80;;;;;;;;;;5021978;28;20443;-76
2022/12/29 10:47:22;;;;;;;1.27;1.10;;;;;;;;;;5018540;28;20616;-75
2022/12/29 10:49:49;;;;;;;2.03;0.90;;;;;;;;;;5013802;28;20960;-76
2022/12/29 10:52:16;;;;;;;4.30;0.73;;;;;;;;;;5020384;28;20597;-75
2022/12/29 10:54:46;;;;;;;3.43;1.17;;;;;;;;;;5008813;28;20442;-76
2022/12/29 10:57:23;;;;;;;3.60;1.10;;;;;;;;;;5006574;28;20444;-75
2022/12/29 10:59:49;;;;;;;2.30;0.70;;;;;;;;;;5005499;28;20438;-77
2022/12/29 11:02:23;;;;;;;4.40;1.37;;;;;;;;;;5016719;28;20590;-77
2022/12/29 11:04:49;;;;;;;6.33;0.80;;;;;;;;;;5025770;28;20429;-74
2022/12/29 11:07:17;;;;;;;5.47;1.17;;;;;;;;;;5027542;28;20487;-75
2022/12/29 11:09:46;;;;;;;3.77;1.10;;;;;;;;;;5029355;28;20808;-76
2022/12/29 11:12:26;;;;;;;3.37;0.97;;;;;;;;;;5030537;28;20892;-76
2022/12/29 11:15:07;;;;;;;11.87;1.00;;;;;;;;;;5021807;28;20546;-77
2022/12/29 11:17:52;;;;;;;1.23;0.90;;;;;;;;;;5025313;28;20537;-78
2022/12/29 11:20:38;;;;;;;1.10;1.00;;;;;;;;;;5020967;28;20430;-76
2022/12/29 11:23:23;;;;;;;1.80;1.00;;;;;;;;;;5014383;28;20442;-75
2022/12/29 11:26:08;;;;;;;3.10;0.70;;;;;;;;;;5021283;28;20882;-74
2022/12/29 11:28:34;;;;;;;4.57;0.90;;;;;;;;;;5011783;28;20481;-75
2022/12/29 11:31:01;;;;;;;1.10;1.10;;;;;;;;;;5014953;28;20544;-75
2022/12/29 11:33:29;;;;;;;0.90;0.90;;;;;;;;;;5017753;28;20438;-76
2022/12/29 11:35:58;;;;;;;16.53;1.07;;;;;;;;;;5018892;28;20915;-78
2022/12/29 11:38:32;;;;;;;1.77;0.73;;;;;;;;;;5022950;28;20431;-76
2022/12/29 11:40:58;;;;;;;1.70;0.60;;;;;;;;;;5023577;28;20416;-74
2022/12/29 11:43:30;;;;;;;0.93;0.93;;;;;;;;;;5021296;28;20941;-77
2022/12/29 11:45:56;;;;;;;1.57;1.47;;;;;;;;;;5023892;28;20426;-75
2022/12/29 11:48:23;;;;;;;1.00;1.00;;;;;;;;;;5022858;28;20809;-75
2022/12/29 11:50:56;;;;;;;5.20;1.03;;;;;;;;;;5026323;28;20457;-76
2022/12/29 11:53:32;;;;;;;3.43;1.63;;;;;;;;;;5014169;28;20422;-76
2022/12/29 11:56:02;;;;;;;0.70;0.50;;;;;;;;;;5021111;28;20508;-75
2022/12/29 11:58:32;;;;;;;3.00;0.80;;;;;;;;;;5023619;28;20787;-78
2022/12/29 12:01:04;;;;;;;3.50;0.80;;;;;;;;;;5026225;28;20838;-75
2022/12/29 12:03:31;;;;;;;3.70;0.70;;;;;;;;;;5011193;28;20500;-75
2022/12/29 12:05:59;;;;;;;3.93;0.80;;;;;;;;;;5021077;28;20467;-77
2022/12/29 12:08:40;;;;;;;1.87;0.70;;;;;;;;;;5021367;28;20446;-77
2022/12/29 12:11:18;;;;;;;1.97;1.70;;;;;;;;;;5032723;28;20837;-75
2022/12/29 12:14:02;;;;;;;0.63;0.63;;;;;;;;;;5030767;28;20438;-75
2022/12/29 12:16:33;;;;;;;4.53;1.03;;;;;;;;;;5027031;28;20422;-76
2022/12/29 12:19:14;;;;;;;2.10;0.87;;;;;;;;;;5031078;28;20465;-77
2022/12/29 12:21:42;;;;;;;3.80;1.00;;;;;;;;;;5033119;28;20781;-76
2022/12/29 12:24:34;;;;;;;0.90;0.90;;;;;;;;;;5026215;28;20508;-76
2022/12/29 12:27:10;;;;;;;1.23;1.20;;;;;;;;;;5022701;28;20414;-76
2022/12/29 12:29:38;;;;;;;3.00;1.30;;;;;;;;;;5027028;28;20438;-78
2022/12/29 12:32:23;;;;;;;2.17;0.80;;;;;;;;;;5035919;28;20461;-76
2022/12/29 12:34:49;;;;;;;1.30;0.80;;;;;;;;;;5023283;28;20433;-76
2022/12/29 12:37:34;;;;;;;1.30;1.20;;;;;;;;;;5036268;28;20571;-75
2022/12/29 12:40:26;;;;;;;3.73;0.97;;;;;;;;;;5033382;28;20466;-76
2022/12/29 12:42:55;;;;;;;3.60;0.93;;;;;;;;;;5008718;28;20466;-74
2022/12/29 12:45:32;;;;;;;0.70;0.60;;;;;;;;;;5012703;28;20909;-75
2022/12/29 12:48:01;;;;;;;2.73;1.00;;;;;;;;;;5016235;28;20830;-76
2022/12/29 12:50:36;;;;;;;1.90;0.87;;;;;;;;;;5023472;28;20573;-75
2022/12/29 12:53:28;;;;;;;2.20;0.97;;;;;;;;;;5021847;28;20428;-76
2022/12/29 12:55:54;;;;;;;0.90;0.90;;;;;;;;;;5039144;28;20487;-78
2022/12/29 12:58:40;;;;;;;2.83;1.50;;;;;;;;;;5017114;28;20457;-77
2022/12/29 13:01:15;;;;;;;7.97;1.00;;;;;;;;;;5025243;28;20780;-76
2022/12/29 13:03:59;;;;;;;3.03;1.37;;;;;;;;;;5025841;28;20442;-75
2022/12/29 13:06:47;;;;;;;3.40;1.67;;;;;;;;;;5017357;28;20937;-76
2022/12/29 13:09:33;;;;;;;4.20;1.43;;;;;;;;;;5014705;28;20466;-76
2022/12/29 13:12:02;;;;;;;1.30;1.20;;;;;;;;;;5020703;28;20566;-76
2022/12/29 13:14:28;;;;;;;2.90;1.27;;;;;;;;;;5020353;28;20441;-75
2022/12/29 13:16:55;;;;;;;3.70;1.60;;;;;;;;;;5016907;28;20523;-75
2022/12/29 13:19:29;;;;;;;3.20;1.60;;;;;;;;;;5024363;28;20885;-77
2022/12/29 13:22:17;;;;;;;0.80;0.80;;;;;;;;;;5016789;28;20584;-74
2022/12/29 13:24:49;;;;;;;2.50;1.57;;;;;;;;;;5015556;28;20461;-76
2022/12/29 13:27:34;;;;;;;2.00;1.13;;;;;;;;;;5014095;28;20415;-76
2022/12/29 13:30:11;;;;;;;3.90;0.90;;;;;;;;;;5020512;28;20563;-74
2022/12/29 13:32:56;;;;;;;1.33;1.07;;;;;;;;;;5025462;28;20866;-76
2022/12/29 13:35:44;;;;;;;2.00;1.33;;;;;;;;;;5027557;28;20542;-76
2022/12/29 13:38:13;;;;;;;0.80;0.80;;;;;;;;;;5022999;28;20467;-76
2022/12/29 13:40:42;;;;;;;0.50;0.50;;;;;;;;;;5026150;28;20476;-77
2022/12/29 13:43:08;;;;;;;0.70;0.67;;;;;;;;;;5019917;28;20512;-76
2022/12/29 13:45:35;;;;;;;1.90;1.17;;;;;;;;;;5028576;28;20439;-73
2022/12/29 13:48:22;;;;;;;4.33;1.30;;;;;;;;;;5027408;28;20435;-75
2022/12/29 13:51:09;;;;;;;2.87;0.90;;;;;;;;;;5028129;28;20505;-81
2022/12/29 13:53:40;;;;;;;2.50;0.90;;;;;;;;;;5022578;28;20483;-77
2022/12/29 13:56:07;;;;;;;3.73;1.07;;;;;;;;;;5023357;28;20435;-75
2022/12/29 13:58:51;;;;;;;2.20;1.13;;;;;;;;;;5024187;28;20451;-75
2022/12/29 14:01:17;;;;;;;1.67;0.90;;;;;;;;;;5020574;28;21305;-76
2022/12/29 14:03:45;;;;;;;2.23;1.10;;;;;;;;;;5021497;28;20439;-76
2022/12/29 14:06:11;;;;;;;1.80;0.83;;;;;;;;;;5022073;28;20431;-75
2022/12/29 14:08:37;;;;;;;1.63;1.37;;;;;;;;;;5023901;28;20798;-75
2022/12/29 14:11:08;;;;;;;5.10;1.40;;;;;;;;;;5020176;28;20475;-76
2022/12/29 14:13:38;;;;;;;5.20;1.27;;;;;;;;;;5018042;28;20433;-77
2022/12/29 14:16:04;;;;;;;0.77;0.50;;;;;;;;;;5022405;28;20423;-76
2022/12/29 14:18:32;;;;;;;2.73;0.93;;;;;;;;;;5023248;28;20435;-76
2022/12/29 14:21:04;;;;;;;1.90;0.67;;;;;;;;;;5023004;28;20515;-76
2022/12/29 14:23:42;;;;;;;5.93;0.93;;;;;;;;;;5020307;28;20450;-75
2022/12/29 14:26:14;;;;;;;3.20;1.20;;;;;;;;;;5031526;28;20434;-78
2022/12/29 14:28:44;;;;;;;1.07;0.77;;;;;;;;;;5018335;28;20444;-75
2022/12/29 14:31:15;;;;;;;3.60;1.57;;;;;;;;;;5029154;28;20497;-75
2022/12/29 14:34:01;;;;;;;1.90;1.80;;;;;;;;;;5021259;28;20537;-75
2022/12/29 14:36:34;;;;;;;2.67;1.17;;;;;;;;;;5018456;28;20505;-73
2022/12/29 14:39:00;;;;;;;1.13;1.13;;;;;;;;;;5024408;28;20441;-75
2022/12/29 14:41:29;;;;;;;1.50;1.10;;;;;;;;;;5033987;28;20434;-74
2022/12/29 14:44:15;;;;;;;1.17;1.17;;;;;;;;;;5028793;28;20451;-75
2022/12/29 14:46:46;;;;;;;0.73;0.73;;;;;;;;;;5025853;28;20434;-73
2022/12/29 14:49:17;;;;;;;2.20;1.20;;;;;;;;;;5024697;28;20458;-74
2022/12/29 14:51:43;;;;;;;34.43;22.63;;;;;;;;;;5026435;28;20523;-74
2022/12/29 14:54:41;;;;;;;0.80;0.77;;;;;;;;;;5019686;28;20431;-75
2022/12/29 14:57:11;;;;;;;3.20;1.27;;;;;;;;;;5030066;28;20415;-74
2022/12/29 14:59:37;;;;;;;2.30;2.10;;;;;;;;;;5033184;28;20455;-76
2022/12/29 15:02:04;;;;;;;1.27;1.17;;;;;;;;;;5036035;28;20433;-75
2022/12/29 15:04:32;;;;;;;0.80;0.80;;;;;;;;;;5025398;28;20423;-75
2022/12/29 15:06:59;;;;;;;5.63;1.07;;;;;;;;;;5009452;28;20412;-74
2022/12/29 15:09:39;;;;;;;3.17;2.10;;;;;;;;;;5019946;28;20447;-75
2022/12/29 15:12:14;;;;;;;3.20;0.90;;;;;;;;;;5012842;28;20461;-75
2022/12/29 15:14:49;;;;;;;4.63;1.20;;;;;;;;;;5009844;28;20416;-75
2022/12/29 15:17:36;;;;;;;0.70;0.70;;;;;;;;;;5006862;28;20929;-77
2022/12/29 15:20:17;;;;;;;2.00;0.87;;;;;;;;;;5015712;28;20919;-73
2022/12/29 15:22:52;;;;;;;0.63;0.50;;;;;;;;;;5015929;28;20478;-75
2022/12/29 15:25:18;;;;;;;1.80;0.63;;;;;;;;;;5009531;28;20423;-74
2022/12/29 15:27:49;;;;;;;1.70;0.60;;;;;;;;;;5013196;28;20436;-76
2022/12/29 15:30:15;;;;;;;1.87;0.93;;;;;;;;;;5018430;28;20624;-77
2022/12/29 15:32:43;;;;;;;1.23;0.73;;;;;;;;;;5012158;28;20443;-78
2022/12/29 15:35:30;;;;;;;1.93;0.67;;;;;;;;;;5017416;28;20420;-77
2022/12/29 15:37:56;;;;;;;1.57;1.47;;;;;;;;;;5006115;28;20520;-77
2022/12/29 15:40:25;;;;;;;1.77;0.90;;;;;;;;;;5016281;28;20430;-76